Glendale Springs, North Carolina
Current Conditions -  °F | °C
As of 8:55 AM on Sunday 25 Jan 2015 (Local Time) from KGEV Reporting Station
Clear Clear  
Wind Chill: 32°   Ceiling: Unl
Heat Index: 32°   Visibility: 10mi
Dew Point: 25°   Wind: 0mph
Humidity: 75%   Direction: NA
Pressure: 29.83"   Gusts: NA
Location:  36.35°N, 81.38°W
Report Text: KGEV 251355Z AUTO 00000KT 10SM CLR 00/M04 A2983 RMK AO2 T00001040
Loading
Personal Weather Stations






























Interactive Weather Map New forecast layout! Learn more

10-Day Weather Forecast

Advertisements
Track Severe Weather on mobile